S C — FGF7634 — position and weather

sailwx.info

Track history (hours):
 
Tides and Currents Weather Stations Pressure Air Temp Water Temp Dewpoint Dewpoint Depression Visibility Wind Speed Wind Dir Waves Ship Positions

S C

Last reported at 2017-Dec-17 08:01 UTC. Time now 2017-Dec-17 08:19 UTC.
Position N 49°29' E 000°07'.

; draft 1 m.

Type: Pilot. MMSI: 227001820.

Date/timePositionNaut miles runAvg speedWind from/ knotsBaromVisibWave heightAir tempDewpointWater temp
2017-Dec-17 08:01N 49°29' E 000°07'917.0
2017-Dec-17 07:30N 49°31' W 000°06'714.7
2017-Dec-17 07:01N 49°29' E 000°05'1 2.3
2017-Dec-17 06:30N 49°29' E 000°07'0 0.0
2017-Dec-17 06:00N 49°29' E 000°07'0 0.0
2017-Dec-17 05:30N 49°29' E 000°07'0 0.0
2017-Dec-17 05:00N 49°29' E 000°07'0 0.0
2017-Dec-17 04:30N 49°29' E 000°07'0 0.0
2017-Dec-17 04:00N 49°29' E 000°07'0 0.7
2017-Dec-17 03:31N 49°29' E 000°06'817.0
2017-Dec-17 03:01N 49°31' W 000°06'917.6
2017-Dec-17 02:31N 49°29' E 000°07'0 0.0
2017-Dec-17 02:01N 49°29' E 000°07'0 0.0
2017-Dec-17 01:31N 49°29' E 000°07'1 1.8
2017-Dec-17 01:00N 49°29' E 000°05'612.2
2017-Dec-17 00:30N 49°30' W 000°04'0 0.8
2017-Dec-17 00:01N 49°31' W 000°04'510.3
2017-Dec-16 23:30N 49°30' E 000°04'2 4.3
2017-Dec-16 23:00N 49°29' E 000°07'0 0.0
2017-Dec-16 22:30N 49°29' E 000°07'4 7.9
2017-Dec-16 22:01N 49°30' E 000°01'3 6.9
2017-Dec-16 21:30N 49°31' W 000°04'612.2
2017-Dec-16 21:00N 49°29' E 000°05'1 2.7
2017-Dec-16 20:30N 49°29' E 000°07'0 0.0
2017-Dec-16 20:00N 49°29' E 000°07'0 0.0
2017-Dec-16 19:30N 49°29' E 000°07'0 0.0
2017-Dec-16 19:00N 49°29' E 000°07'0 0.0
2017-Dec-16 18:30N 49°29' E 000°07'0 0.0
2017-Dec-16 18:00N 49°29' E 000°07'0 0.0
2017-Dec-16 17:30N 49°29' E 000°07'0 0.0
2017-Dec-16 17:00N 49°29' E 000°07'0 0.0
2017-Dec-16 16:30N 49°29' E 000°07'0 0.0
2017-Dec-16 16:00N 49°29' E 000°07'0 0.0
2017-Dec-16 15:30N 49°29' E 000°07'0 0.0
2017-Dec-16 15:00N 49°29' E 000°07'0 0.0
2017-Dec-16 14:30N 49°29' E 000°07'0 0.0
2017-Dec-16 14:00N 49°29' E 000°07'0 0.0
2017-Dec-16 13:30N 49°29' E 000°07'0 0.0
2017-Dec-16 13:00N 49°29' E 000°07'0 0.0
2017-Dec-16 12:30N 49°29' E 000°07'4 7.5
2017-Dec-16 12:00N 49°30' E 000°01'3 5.9
2017-Dec-16 11:30N 49°31' W 000°03'713.3
2017-Dec-16 11:00N 49°29' E 000°07'0 0.0
2017-Dec-16 10:30N 49°29' E 000°07'0 0.0
2017-Dec-16 10:00N 49°29' E 000°07'0 0.0
2017-Dec-16 09:30N 49°29' E 000°07'1 2.3
2017-Dec-16 09:01N 49°29' E 000°05'4 8.8
2017-Dec-16 08:30N 49°30' W 000°01'611.1
2017-Dec-16 08:00N 49°29' E 000°07'0 0.0
2017-Dec-16 07:30N 49°29' E 000°07'0 0.0
2017-Dec-16 07:00N 49°29' E 000°07'0 0.0
2017-Dec-16 06:30N 49°29' E 000°07'0 0.0
2017-Dec-16 06:01N 49°29' E 000°07'0 0.0
2017-Dec-16 05:30N 49°29' E 000°07'713.2
2017-Dec-16 05:00N 49°30' W 000°03'2 4.9
2017-Dec-16 04:30N 49°30' E 000°00'4 8.4
2017-Dec-16 04:01N 49°29' E 000°07'0 0.0
2017-Dec-16 03:30N 49°29' E 000°07'0 0.0
2017-Dec-16 03:00N 49°29' E 000°07'0 0.0
2017-Dec-16 02:31N 49°29' E 000°07'0 0.0
2017-Dec-16 02:01N 49°29' E 000°07'0 0.0
2017-Dec-16 01:31N 49°29' E 000°07'0 0.0
2017-Dec-16 01:00N 49°29' E 000°07'0 0.0
2017-Dec-16 00:31N 49°29' E 000°07'0 0.0
2017-Dec-16 00:01N 49°29' E 000°07'0 0.0
2017-Dec-15 23:31N 49°29' E 000°07'5 9.5
2017-Dec-15 23:00N 49°30' W 000°00'2 4.2
2017-Dec-15 22:31N 49°31' W 000°03'2 3.8
2017-Dec-15 22:00N 49°31' W 000°06'5 9.5
2017-Dec-15 21:30N 49°30' E 000°01'4 8.1
2017-Dec-15 21:00N 49°29' E 000°07'0 0.0
2017-Dec-15 20:30N 49°29' E 000°07'0 0.0
2017-Dec-15 20:00N 49°29' E 000°07'0 0.0
2017-Dec-15 19:30N 49°29' E 000°07'0 0.0
2017-Dec-15 19:00N 49°29' E 000°07'0 0.0
2017-Dec-15 18:30N 49°29' E 000°07'0 0.0
2017-Dec-15 18:00N 49°29' E 000°07'0 0.0
2017-Dec-15 17:30N 49°29' E 000°07'0 0.0
2017-Dec-15 17:00N 49°29' E 000°07'0 0.0
2017-Dec-15 16:30N 49°29' E 000°07'0 0.0
2017-Dec-15 16:00N 49°29' E 000°07'0 0.0
2017-Dec-15 15:30N 49°29' E 000°07'0 0.0
2017-Dec-15 15:00N 49°29' E 000°07'0 0.0
2017-Dec-15 14:30N 49°29' E 000°07'3 6.6
2017-Dec-15 14:01N 49°30' E 000°02'3 6.5
2017-Dec-15 13:30N 49°29' E 000°07'0 0.0
2017-Dec-15 13:00N 49°29' E 000°07'0 0.0
2017-Dec-15 12:30N 49°29' E 000°07'0 0.0
2017-Dec-15 12:00N 49°29' E 000°07'0 0.0
2017-Dec-15 11:30N 49°29' E 000°07'0 0.0
2017-Dec-15 11:00N 49°29' E 000°07'0 0.0
2017-Dec-15 10:30N 49°29' E 000°07'0 0.0
2017-Dec-15 10:00N 49°29' E 000°07'0 0.0
2017-Dec-15 09:30N 49°29' E 000°07'0 0.0
2017-Dec-15 09:00N 49°29' E 000°07'0 0.0
2017-Dec-15 08:30N 49°29' E 000°07'0 0.2
2017-Dec-15 08:00N 49°29' E 000°07'0 0.2
2017-Dec-15 07:30N 49°29' E 000°07'0 0.0
2017-Dec-15 07:00N 49°29' E 000°07'0 0.0
2017-Dec-15 06:30N 49°29' E 000°07'0 0.0
2017-Dec-15 06:00N 49°29' E 000°07'0 0.0
2017-Dec-15 05:30N 49°29' E 000°07'0 0.0
2017-Dec-15 05:00N 49°29' E 000°07'3 6.8
2017-Dec-15 04:31N 49°30' E 000°02'3 6.8
2017-Dec-15 04:00N 49°29' E 000°07'0 0.0
2017-Dec-15 02:30N 49°29' E 000°07'3 2.3
2017-Dec-15 01:00N 49°30' E 000°02'3 7.0
2017-Dec-15 00:31N 49°29' E 000°07'0 0.0
2017-Dec-14 18:31N 49°29' E 000°07'0 0.0
2017-Dec-14 18:00N 49°29' E 000°07'0 0.0
2017-Dec-14 17:30N 49°29' E 000°07'0 0.0
2017-Dec-14 17:00N 49°29' E 000°07'0 0.0
2017-Dec-14 16:30N 49°29' E 000°07'0 0.0
2017-Dec-14 16:00N 49°29' E 000°07'0 0.0
2017-Dec-14 15:00N 49°29' E 000°07'0 0.0
2017-Dec-14 14:30N 49°29' E 000°07'0 0.0
2017-Dec-14 14:00N 49°29' E 000°07'0 0.0
2017-Dec-14 13:30N 49°29' E 000°07'0 0.0
2017-Dec-14 13:00N 49°29' E 000°07'0 0.0
2017-Dec-14 12:30N 49°29' E 000°07'0 0.0
2017-Dec-14 12:00N 49°29' E 000°07'0 0.0
2017-Dec-14 11:30N 49°29' E 000°07'0 0.0
2017-Dec-14 11:00N 49°29' E 000°07'0 0.0
2017-Dec-14 10:30N 49°29' E 000°07'0 0.0
2017-Dec-14 10:00N 49°29' E 000°07'0 0.0
2017-Dec-14 09:30N 49°29' E 000°07'0 0.0
2017-Dec-14 09:00N 49°29' E 000°07'0 0.0
2017-Dec-14 08:30N 49°29' E 000°07'0 0.2
2017-Dec-14 08:00N 49°29' E 000°07'0 0.2
2017-Dec-14 07:30N 49°29' E 000°07'0 0.0
2017-Dec-14 07:00N 49°29' E 000°07'0 0.0
2017-Dec-14 06:30N 49°29' E 000°07'0 0.0
2017-Dec-14 06:00N 49°29' E 000°07'0 0.0
2017-Dec-14 05:30N 49°29' E 000°07'0 0.0
2017-Dec-14 05:00N 49°29' E 000°07'0 0.0
2017-Dec-14 04:30N 49°29' E 000°07'0 0.0
2017-Dec-14 04:00N 49°29' E 000°07'0 0.0
2017-Dec-14 03:30N 49°29' E 000°07'0 0.0
2017-Dec-14 03:00N 49°29' E 000°07'0 0.0
2017-Dec-14 02:30N 49°29' E 000°07'0 0.0
2017-Dec-14 02:00N 49°29' E 000°07'0 0.0
2017-Dec-14 01:30N 49°29' E 000°07'0 0.0
2017-Dec-14 01:00N 49°29' E 000°07'0 0.0
2017-Dec-14 00:30N 49°29' E 000°07'3 5.8
2017-Dec-14 00:01N 49°30' E 000°02'611.5
2017-Dec-13 23:30N 49°31' W 000°06'510.3
2017-Dec-13 23:01N 49°30' E 000°01'4 7.1
2017-Dec-13 22:30N 49°29' E 000°07'0 0.0
2017-Dec-13 22:00N 49°29' E 000°07'0 0.0
2017-Dec-13 21:31N 49°29' E 000°07'714.6
2017-Dec-13 21:00N 49°31' W 000°04'510.2
2017-Dec-13 20:30N 49°30' E 000°03'2 4.4
2017-Dec-13 20:01N 49°29' E 000°07'0 0.0
2017-Dec-13 19:31N 49°29' E 000°07'0 0.0
2017-Dec-13 19:00N 49°29' E 000°07'0 0.0
2017-Dec-13 18:31N 49°29' E 000°07'0 0.0
2017-Dec-13 18:01N 49°29' E 000°07'0 0.0
2017-Dec-13 17:31N 49°29' E 000°07'0 0.0
2017-Dec-13 17:01N 49°29' E 000°07'0 0.0
2017-Dec-13 16:30N 49°29' E 000°07'0 0.0
2017-Dec-13 16:01N 49°29' E 000°07'0 0.0
2017-Dec-13 15:31N 49°29' E 000°07'3 6.8
2017-Dec-13 15:00N 49°30' E 000°02'0 0.9
2017-Dec-13 14:30N 49°30' E 000°02'3 5.9
2017-Dec-13 14:01N 49°29' E 000°07'0 0.0
2017-Dec-13 13:31N 49°29' E 000°07'0 0.0
2017-Dec-13 13:01N 49°29' E 000°07'2 4.7
2017-Dec-13 12:31N 49°30' E 000°03'0 1.0
2017-Dec-13 12:00N 49°29' E 000°04'2 3.7
2017-Dec-13 11:30N 49°29' E 000°07'0 0.0
2017-Dec-13 11:00N 49°29' E 000°07'0 0.0
2017-Dec-13 10:30N 49°29' E 000°07'0 0.0
2017-Dec-13 10:00N 49°29' E 000°07'0 0.0
2017-Dec-13 09:30N 49°29' E 000°07'0 0.0
2017-Dec-13 09:00N 49°29' E 000°07'0 0.0
2017-Dec-13 08:30N 49°29' E 000°07'0 0.0
2017-Dec-13 08:00N 49°29' E 000°07'0 0.0
2017-Dec-13 07:30N 49°29' E 000°07'0 0.0
2017-Dec-13 07:00N 49°29' E 000°07'0 0.0
2017-Dec-13 06:30N 49°29' E 000°07'713.1
2017-Dec-13 06:01N 49°31' W 000°03'713.0
2017-Dec-13 05:30N 49°29' E 000°07'0 0.0
2017-Dec-13 05:00N 49°29' E 000°07'0 0.0
2017-Dec-13 04:30N 49°29' E 000°07'0 0.0
2017-Dec-13 04:01N 49°29' E 000°07'0 0.0
2017-Dec-13 03:31N 49°29' E 000°07'0 0.0
2017-Dec-13 03:01N 49°29' E 000°07'0 0.0
2017-Dec-13 02:30N 49°29' E 000°07'0 0.0
2017-Dec-13 02:01N 49°29' E 000°07'0 0.0
2017-Dec-13 01:30N 49°29' E 000°07'0 0.0
2017-Dec-13 01:01N 49°29' E 000°07'0 0.0
2017-Dec-13 00:31N 49°29' E 000°07'0 0.0
2017-Dec-13 00:01N 49°29' E 000°07'0 0.0
2017-Dec-12 23:31N 49°29' E 000°07'0 0.9
2017-Dec-12 23:00N 49°29' E 000°06'1019.0
2017-Dec-12 22:30N 49°32' W 000°08'1019.3
2017-Dec-12 22:00N 49°29' E 000°06'0 0.6
2017-Dec-12 21:30N 49°29' E 000°07'0 0.0
2017-Dec-12 21:00N 49°29' E 000°07'0 0.0
2017-Dec-12 20:30N 49°29' E 000°07'0 0.0
2017-Dec-12 20:00N 49°29' E 000°07'0 0.0
2017-Dec-12 19:30N 49°29' E 000°07'0 0.0
2017-Dec-12 19:00N 49°29' E 000°07'0 0.0
2017-Dec-12 18:30N 49°29' E 000°07'0 0.0
2017-Dec-12 18:00N 49°29' E 000°07'0 0.0
2017-Dec-12 17:30N 49°29' E 000°07'0 0.0
2017-Dec-12 17:00N 49°29' E 000°07'0 0.0
2017-Dec-12 16:30N 49°29' E 000°07'917.8
2017-Dec-12 16:00N 49°32' W 000°06'917.8
2017-Dec-12 15:31N 49°29' E 000°07'0 0.0
2017-Dec-12 15:01N 49°29' E 000°07'0 0.0
2017-Dec-12 14:31N 49°29' E 000°07'0 0.0
2017-Dec-12 14:01N 49°29' E 000°07'0 0.0
2017-Dec-12 13:31N 49°29' E 000°07'0 0.0
2017-Dec-12 13:00N 49°29' E 000°07'0 0.5
2017-Dec-12 12:30N 49°29' E 000°06'714.4
2017-Dec-12 12:01N 49°31' W 000°04'714.8
2017-Dec-12 11:31N 49°29' E 000°07'0 0.0
2017-Dec-12 11:01N 49°29' E 000°07'0 0.3
2017-Dec-12 10:31N 49°29' E 000°07'1019.3
2017-Dec-12 10:01N 49°32' W 000°08'1019.2
2017-Dec-12 09:30N 49°29' E 000°07'0 0.3
2017-Dec-12 09:00N 49°29' E 000°07'0 0.0
2017-Dec-12 08:31N 49°29' E 000°07'0 0.0
2017-Dec-12 08:00N 49°29' E 000°07'0 0.0
2017-Dec-12 07:30N 49°29' E 000°07'0 0.0
2017-Dec-12 07:01N 49°29' E 000°07'0 0.0
2017-Dec-12 06:31N 49°29' E 000°07'0 0.0
2017-Dec-12 06:01N 49°29' E 000°07'3 5.0
2017-Dec-12 05:31N 49°30' E 000°03'2 3.4
2017-Dec-12 05:00N 49°30' E 000°01'4 8.3
2017-Dec-12 04:30N 49°29' E 000°07'0 0.0
2017-Dec-12 04:00N 49°29' E 000°07'0 0.0
2017-Dec-12 03:30N 49°29' E 000°07'0 0.0
2017-Dec-12 03:00N 49°29' E 000°07'0 0.0
2017-Dec-12 02:31N 49°29' E 000°07'0 0.0
2017-Dec-12 02:00N 49°29' E 000°07'0 0.0
2017-Dec-12 01:31N 49°29' E 000°07'612.7
2017-Dec-12 01:00N 49°30' W 000°03'5 9.7
2017-Dec-12 00:31N 49°29' E 000°04'2 3.1
2017-Dec-12 00:00N 49°29' E 000°07'0 0.0
2017-Dec-11 23:30N 49°29' E 000°07'0 0.0
2017-Dec-11 23:00N 49°29' E 000°07'0 0.0
2017-Dec-11 22:30N 49°29' E 000°07'0 0.0
2017-Dec-11 22:00N 49°29' E 000°07'0 0.0
2017-Dec-11 21:30N 49°29' E 000°07'0 0.0
2017-Dec-11 21:00N 49°29' E 000°07'0 0.0
2017-Dec-11 20:30N 49°29' E 000°07'0 0.0
2017-Dec-11 20:00N 49°29' E 000°07'0 0.0
2017-Dec-11 19:30N 49°29' E 000°07'0 0.0
2017-Dec-11 19:00N 49°29' E 000°07'0 0.0
2017-Dec-11 18:30N 49°29' E 000°07'0 0.0
2017-Dec-11 18:00N 49°29' E 000°07'0 0.0
2017-Dec-11 17:30N 49°29' E 000°07'0 0.0
2017-Dec-11 17:00N 49°29' E 000°07'0 0.0
2017-Dec-11 16:30N 49°29' E 000°07'0 0.0
2017-Dec-11 16:00N 49°29' E 000°07'0 0.0
2017-Dec-11 15:30N 49°29' E 000°07'0 0.0
2017-Dec-11 15:00N 49°29' E 000°07'0 0.0
2017-Dec-11 14:30N 49°29' E 000°07'1 1.8
2017-Dec-11 14:00N 49°29' E 000°05'1 1.8
2017-Dec-11 13:30N 49°29' E 000°07'0 0.0
2017-Dec-11 13:00N 49°29' E 000°07'0 0.0
2017-Dec-11 12:30N 49°29' E 000°07'0 0.0
2017-Dec-11 12:00N 49°29' E 000°07'0 0.0
2017-Dec-11 11:30N 49°29' E 000°07'0 0.0
2017-Dec-11 11:00N 49°29' E 000°07'0 0.0
2017-Dec-11 10:30N 49°29' E 000°07'2 4.3
2017-Dec-11 10:00N 49°29' E 000°04'2 3.4
2017-Dec-11 09:30N 49°29' E 000°06'0 0.9
2017-Dec-11 09:00N 49°29' E 000°07'0 0.0
2017-Dec-11 08:30N 49°29' E 000°07'0 0.0
2017-Dec-11 08:00N 49°29' E 000°07'0 0.0
2017-Dec-11 07:30N 49°29' E 000°07'0 0.0
2017-Dec-11 07:00N 49°29' E 000°07'0 0.0
2017-Dec-11 06:30N 49°29' E 000°07'0 0.0
2017-Dec-11 06:00N 49°29' E 000°07'0 0.0
2017-Dec-11 05:30N 49°29' E 000°07'0 0.8
2017-Dec-11 05:00N 49°29' E 000°06'4 8.9
2017-Dec-11 04:30N 49°30' W 000°00'5 9.7
2017-Dec-11 04:00N 49°29' E 000°07'0 0.0
2017-Dec-11 03:30N 49°29' E 000°07'0 0.0
2017-Dec-11 03:00N 49°29' E 000°07'0 0.0
2017-Dec-11 02:30N 49°29' E 000°07'918.0
2017-Dec-11 02:01N 49°32' W 000°06'714.8
2017-Dec-11 01:31N 49°29' E 000°04'0 0.0
2017-Dec-11 01:00N 49°29' E 000°04'5 9.9
2017-Dec-11 00:30N 49°31' W 000°03'3 6.8
2017-Dec-11 00:01N 49°32' W 000°08'612.9
2017-Dec-10 23:31N 49°30' E 000°02'3 6.9
2017-Dec-10 23:00N 49°29' E 000°07'0 0.0
2017-Dec-10 22:30N 49°29' E 000°07'0 0.0
2017-Dec-10 22:00N 49°29' E 000°07'0 0.0
2017-Dec-10 21:30N 49°29' E 000°07'0 0.0
2017-Dec-10 21:00N 49°29' E 000°07'0 0.0
2017-Dec-10 20:30N 49°29' E 000°07'0 0.0
2017-Dec-10 20:00N 49°29' E 000°07'0 0.0
2017-Dec-10 19:30N 49°29' E 000°07'0 0.0
2017-Dec-10 19:00N 49°29' E 000°07'0 0.0
2017-Dec-10 18:30N 49°29' E 000°07'0 0.0
2017-Dec-10 18:00N 49°29' E 000°07'0 0.0
2017-Dec-10 17:30N 49°29' E 000°07'0 0.0
2017-Dec-10 17:00N 49°29' E 000°07'0 0.0
2017-Dec-10 16:30N 49°29' E 000°07'0 0.0
2017-Dec-10 16:00N 49°29' E 000°07'0 0.0
2017-Dec-10 15:30N 49°29' E 000°07'0 0.0
2017-Dec-10 15:00N 49°29' E 000°07'0 0.0
2017-Dec-10 14:30N 49°29' E 000°07'0 0.0
2017-Dec-10 14:00N 49°29' E 000°07'0 0.0
2017-Dec-10 13:30N 49°29' E 000°07'0 0.0
2017-Dec-10 13:00N 49°29' E 000°07'0 0.0
2017-Dec-10 12:30N 49°29' E 000°07'0 0.0
2017-Dec-10 12:00N 49°29' E 000°07'0 0.0
2017-Dec-10 11:30N 49°29' E 000°07'0 0.0
2017-Dec-10 11:00N 49°29' E 000°07'0 0.0
2017-Dec-10 10:30N 49°29' E 000°07'0 0.0
2017-Dec-10 10:00N 49°29' E 000°07'0 0.0
2017-Dec-10 09:30N 49°29' E 000°07'0 0.0
2017-Dec-10 09:00N 49°29' E 000°07'0 0.0
2017-Dec-10 08:30N 49°29' E 000°07'0 0.0
2017-Dec-10 08:00N 49°29' E 000°07'0 0.0
2017-Dec-10 07:30N 49°29' E 000°07'1 2.1
2017-Dec-10 07:01N 49°29' E 000°05'815.4
2017-Dec-10 06:31N 49°32' W 000°06'715.0
2017-Dec-10 06:01N 49°29' E 000°05'1 2.6
2017-Dec-10 05:30N 49°29' E 000°07'0 0.0
2017-Dec-10 05:01N 49°29' E 000°07'0 0.0
2017-Dec-10 04:30N 49°29' E 000°07'0 0.0
2017-Dec-10 04:01N 49°29' E 000°07'3 6.1
2017-Dec-10 03:31N 49°30' E 000°02'5 9.5
2017-Dec-10 03:00N 49°32' W 000°04'611.6
2017-Dec-10 02:31N 49°30' E 000°04'2 4.1
2017-Dec-10 02:00N 49°29' E 000°07'0 0.0
2017-Dec-10 01:31N 49°29' E 000°07'0 0.0
2017-Dec-10 01:00N 49°29' E 000°07'0 0.0
2017-Dec-10 00:30N 49°29' E 000°07'2 3.1
2017-Dec-10 00:01N 49°29' E 000°04'815.3
2017-Dec-09 23:30N 49°32' W 000°07'917.8
2017-Dec-09 23:00N 49°29' E 000°06'0 0.5
2017-Dec-09 22:30N 49°29' E 000°07'0 0.0
2017-Dec-09 22:00N 49°29' E 000°07'3 5.2
2017-Dec-09 21:31N 49°30' E 000°03'2 3.2
2017-Dec-09 21:00N 49°29' E 000°05'3 5.8
2017-Dec-09 20:30N 49°30' E 000°01'5 9.5
2017-Dec-09 20:01N 49°32' W 000°06'612.8
2017-Dec-09 19:30N 49°30' E 000°04'2 3.8
2017-Dec-09 19:00N 49°29' E 000°06'0 0.6
2017-Dec-09 18:30N 49°29' E 000°07'0 0.0
2017-Dec-09 18:00N 49°29' E 000°07'0 0.0
2017-Dec-09 17:30N 49°29' E 000°07'2 3.6
2017-Dec-09 17:00N 49°29' E 000°04'2 3.6
2017-Dec-09 16:30N 49°29' E 000°07'0 0.0
2017-Dec-09 16:01N 49°29' E 000°07'0 0.0
2017-Dec-09 15:30N 49°29' E 000°07'1 1.7
2017-Dec-09 15:01N 49°29' E 000°05'611.9
2017-Dec-09 14:31N 49°31' W 000°03'0 0.6
2017-Dec-09 14:01N 49°31' W 000°03'5 9.1
2017-Dec-09 13:30N 49°30' E 000°03'3 5.0
2017-Dec-09 13:00N 49°29' E 000°07'0 0.0
2017-Dec-09 12:30N 49°29' E 000°07'0 0.0
2017-Dec-09 12:00N 49°29' E 000°07'0 0.0
2017-Dec-09 11:31N 49°29' E 000°07'0 0.0
2017-Dec-09 11:00N 49°29' E 000°07'0 0.0
2017-Dec-09 10:31N 49°29' E 000°07'0 0.0
2017-Dec-09 10:01N 49°29' E 000°07'0 0.0
2017-Dec-09 09:30N 49°29' E 000°07'0 0.0
2017-Dec-09 09:00N 49°29' E 000°07'0 0.2
2017-Dec-09 08:30N 49°29' E 000°07'5 9.6
2017-Dec-09 08:01N 49°30' W 000°00'1 2.5
2017-Dec-09 07:30N 49°29' E 000°01'4 7.2
2017-Dec-09 07:00N 49°29' E 000°07'0 0.0
2017-Dec-09 06:31N 49°29' E 000°07'0 0.0
2017-Dec-09 06:00N 49°29' E 000°07'0 0.0
2017-Dec-09 05:31N 49°29' E 000°07'0 0.0
2017-Dec-09 05:00N 49°29' E 000°07'0 0.0
2017-Dec-09 04:31N 49°29' E 000°07'0 0.0
2017-Dec-09 04:01N 49°29' E 000°07'0 0.0
2017-Dec-09 03:30N 49°29' E 000°07'0 0.0
2017-Dec-09 03:01N 49°29' E 000°07'0 0.0
2017-Dec-09 02:31N 49°29' E 000°07'0 0.0
2017-Dec-09 02:01N 49°29' E 000°07'611.8
2017-Dec-09 01:31N 49°31' W 000°02'4 7.5
2017-Dec-09 01:01N 49°30' E 000°03'2 4.4
2017-Dec-09 00:30N 49°29' E 000°07'0 0.0
2017-Dec-09 00:01N 49°29' E 000°07'2 4.8
2017-Dec-08 23:31N 49°30' E 000°03'2 4.7
2017-Dec-08 23:00N 49°29' E 000°07'1 2.0
2017-Dec-08 22:30N 49°29' E 000°05'1 2.1
2017-Dec-08 22:00N 49°29' E 000°07'0 0.0
2017-Dec-08 21:30N 49°29' E 000°07'0 0.0
2017-Dec-08 21:00N 49°29' E 000°07'0 0.7
2017-Dec-08 20:30N 49°29' E 000°06'0 0.7
2017-Dec-08 20:00N 49°29' E 000°07'0 0.0
2017-Dec-08 19:30N 49°29' E 000°07'0 0.0
2017-Dec-08 19:00N 49°29' E 000°07'0 0.0
2017-Dec-08 18:30N 49°29' E 000°07'0 0.0
2017-Dec-08 18:00N 49°29' E 000°07'0 0.0
2017-Dec-08 17:30N 49°29' E 000°07'0 0.0
2017-Dec-08 17:00N 49°29' E 000°07'0 0.0
2017-Dec-08 16:30N 49°29' E 000°07'0 0.0
2017-Dec-08 16:01N 49°29' E 000°07'0 0.0
2017-Dec-08 15:31N 49°29' E 000°07'0 0.0
2017-Dec-08 15:01N 49°29' E 000°07'0 0.0
2017-Dec-08 14:30N 49°29' E 000°07'0 0.0
2017-Dec-08 14:00N 49°29' E 000°07'0 0.0
2017-Dec-08 13:31N 49°29' E 000°07'0 0.0
2017-Dec-08 13:00N 49°29' E 000°07'0 0.0
2017-Dec-08 12:30N 49°29' E 000°07'0 0.0
2017-Dec-08 12:00N 49°29' E 000°07'0 0.0
2017-Dec-08 11:30N 49°29' E 000°07'0 0.0
2017-Dec-08 11:00N 49°29' E 000°07'0 0.0
2017-Dec-08 10:31N 49°29' E 000°07'0 0.0
2017-Dec-08 10:00N 49°29' E 000°07'0 0.0
2017-Dec-08 09:31N 49°29' E 000°07'0 0.0
2017-Dec-08 09:01N 49°29' E 000°07'0 0.0
2017-Dec-08 08:30N 49°29' E 000°07'0 0.0
2017-Dec-08 08:00N 49°29' E 000°07'0 0.0
2017-Dec-08 07:30N 49°29' E 000°07'0 0.0
2017-Dec-08 07:00N 49°29' E 000°07'0 0.0
2017-Dec-08 06:30N 49°29' E 000°07'0 0.0
2017-Dec-08 06:00N 49°29' E 000°07'0 0.0
2017-Dec-08 05:31N 49°29' E 000°07'0 0.0
2017-Dec-08 05:00N 49°29' E 000°07'1 1.2
2017-Dec-08 04:30N 49°29' E 000°06'815.1
2017-Dec-08 04:00N 49°32' W 000°05'611.7
2017-Dec-08 03:30N 49°30' E 000°03'2 4.6
2017-Dec-08 03:00N 49°29' E 000°07'0 0.0
2017-Dec-08 02:30N 49°29' E 000°07'0 0.0
2017-Dec-08 02:00N 49°29' E 000°07'0 0.0
2017-Dec-08 01:30N 49°29' E 000°07'510.0
2017-Dec-08 01:00N 49°30' W 000°01'1 2.2
2017-Dec-08 00:30N 49°30' E 000°01'4 7.9
2017-Dec-08 00:00N 49°29' E 000°07'0 0.0
2017-Dec-07 23:30N 49°29' E 000°07'0 0.0
2017-Dec-07 23:00N 49°29' E 000°07'0 0.0
2017-Dec-07 22:30N 49°29' E 000°07'0 0.0
2017-Dec-07 22:00N 49°29' E 000°07'0 0.0
2017-Dec-07 21:30N 49°29' E 000°07'0 0.0
2017-Dec-07 21:00N 49°29' E 000°07'0 0.0
2017-Dec-07 20:30N 49°29' E 000°07'0 0.0
2017-Dec-07 20:00N 49°29' E 000°07'4 8.4
2017-Dec-07 19:31N 49°30' E 000°01'4 7.4
2017-Dec-07 19:01N 49°29' E 000°06'1 1.1
2017-Dec-07 18:31N 49°29' E 000°07'0 0.0
2017-Dec-07 18:01N 49°29' E 000°07'0 0.0
2017-Dec-07 17:31N 49°29' E 000°07'0 0.0
2017-Dec-07 17:01N 49°29' E 000°07'0 0.0
2017-Dec-07 16:31N 49°29' E 000°07'0 0.0
2017-Dec-07 16:01N 49°29' E 000°07'0 0.0
2017-Dec-07 15:31N 49°29' E 000°07'0 0.0
2017-Dec-07 15:01N 49°29' E 000°07'0 0.0
2017-Dec-07 14:30N 49°29' E 000°07'0 0.0
2017-Dec-07 14:01N 49°29' E 000°07'0 0.0
2017-Dec-07 13:31N 49°29' E 000°07'0 0.0
2017-Dec-07 13:01N 49°29' E 000°07'0 0.7
2017-Dec-07 12:31N 49°29' E 000°06'0 0.7
2017-Dec-07 12:00N 49°29' E 000°06'1 1.3
2017-Dec-07 11:30N 49°29' E 000°07'0 0.0
2017-Dec-07 11:00N 49°29' E 000°07'0 0.0
2017-Dec-07 10:30N 49°29' E 000°07'0 0.0
2017-Dec-07 10:00N 49°29' E 000°07'0 0.3
2017-Dec-07 09:30N 49°29' E 000°07'0 0.3
2017-Dec-07 09:00N 49°29' E 000°07'0 0.0
2017-Dec-07 08:30N 49°29' E 000°07'  
Track history (hours):
 
Tides and Currents Weather Stations Pressure Air Temp Water Temp Dewpoint Dewpoint Depression Visibility Wind Speed Wind Dir Waves Ship Positions

S C

Last reported at 2017-Dec-17 08:01 UTC. Time now 2017-Dec-17 08:19 UTC.
Position N 49°29' E 000°07'.

; draft 1 m.

Type: Pilot. MMSI: 227001820.

Date/timePositionNaut miles runAvg speedWind from/ knotsBaromVisibWave heightAir tempDewpointWater temp
2017-Dec-17 08:01N 49°29' E 000°07'917.0
2017-Dec-17 07:30N 49°31' W 000°06'714.7
2017-Dec-17 07:01N 49°29' E 000°05'1 2.3
2017-Dec-17 06:30N 49°29' E 000°07'0 0.0
2017-Dec-17 06:00N 49°29' E 000°07'0 0.0
2017-Dec-17 05:30N 49°29' E 000°07'0 0.0
2017-Dec-17 05:00N 49°29' E 000°07'0 0.0
2017-Dec-17 04:30N 49°29' E 000°07'0 0.0
2017-Dec-17 04:00N 49°29' E 000°07'0 0.7
2017-Dec-17 03:31N 49°29' E 000°06'817.0
2017-Dec-17 03:01N 49°31' W 000°06'917.6
2017-Dec-17 02:31N 49°29' E 000°07'0 0.0
2017-Dec-17 02:01N 49°29' E 000°07'0 0.0
2017-Dec-17 01:31N 49°29' E 000°07'1 1.8
2017-Dec-17 01:00N 49°29' E 000°05'612.2
2017-Dec-17 00:30N 49°30' W 000°04'0 0.8
2017-Dec-17 00:01N 49°31' W 000°04'510.3
2017-Dec-16 23:30N 49°30' E 000°04'2 4.3
2017-Dec-16 23:00N 49°29' E 000°07'0 0.0
2017-Dec-16 22:30N 49°29' E 000°07'4 7.9
2017-Dec-16 22:01N 49°30' E 000°01'3 6.9
2017-Dec-16 21:30N 49°31' W 000°04'612.2
2017-Dec-16 21:00N 49°29' E 000°05'1 2.7
2017-Dec-16 20:30N 49°29' E 000°07'0 0.0
2017-Dec-16 20:00N 49°29' E 000°07'0 0.0
2017-Dec-16 19:30N 49°29' E 000°07'0 0.0
2017-Dec-16 19:00N 49°29' E 000°07'0 0.0
2017-Dec-16 18:30N 49°29' E 000°07'0 0.0
2017-Dec-16 18:00N 49°29' E 000°07'0 0.0
2017-Dec-16 17:30N 49°29' E 000°07'0 0.0
2017-Dec-16 17:00N 49°29' E 000°07'0 0.0
2017-Dec-16 16:30N 49°29' E 000°07'0 0.0
2017-Dec-16 16:00N 49°29' E 000°07'0 0.0
2017-Dec-16 15:30N 49°29' E 000°07'0 0.0
2017-Dec-16 15:00N 49°29' E 000°07'0 0.0
2017-Dec-16 14:30N 49°29' E 000°07'0 0.0
2017-Dec-16 14:00N 49°29' E 000°07'0 0.0
2017-Dec-16 13:30N 49°29' E 000°07'0 0.0
2017-Dec-16 13:00N 49°29' E 000°07'0 0.0
2017-Dec-16 12:30N 49°29' E 000°07'4 7.5
2017-Dec-16 12:00N 49°30' E 000°01'3 5.9
2017-Dec-16 11:30N 49°31' W 000°03'713.3
2017-Dec-16 11:00N 49°29' E 000°07'0 0.0
2017-Dec-16 10:30N 49°29' E 000°07'0 0.0
2017-Dec-16 10:00N 49°29' E 000°07'0 0.0
2017-Dec-16 09:30N 49°29' E 000°07'1 2.3
2017-Dec-16 09:01N 49°29' E 000°05'4 8.8
2017-Dec-16 08:30N 49°30' W 000°01'611.1
2017-Dec-16 08:00N 49°29' E 000°07'0 0.0
2017-Dec-16 07:30N 49°29' E 000°07'0 0.0
2017-Dec-16 07:00N 49°29' E 000°07'0 0.0
2017-Dec-16 06:30N 49°29' E 000°07'0 0.0
2017-Dec-16 06:01N 49°29' E 000°07'0 0.0
2017-Dec-16 05:30N 49°29' E 000°07'713.2
2017-Dec-16 05:00N 49°30' W 000°03'2 4.9
2017-Dec-16 04:30N 49°30' E 000°00'4 8.4
2017-Dec-16 04:01N 49°29' E 000°07'0 0.0
2017-Dec-16 03:30N 49°29' E 000°07'0 0.0
2017-Dec-16 03:00N 49°29' E 000°07'0 0.0
2017-Dec-16 02:31N 49°29' E 000°07'0 0.0
2017-Dec-16 02:01N 49°29' E 000°07'0 0.0
2017-Dec-16 01:31N 49°29' E 000°07'0 0.0
2017-Dec-16 01:00N 49°29' E 000°07'0 0.0
2017-Dec-16 00:31N 49°29' E 000°07'0 0.0
2017-Dec-16 00:01N 49°29' E 000°07'0 0.0
2017-Dec-15 23:31N 49°29' E 000°07'5 9.5
2017-Dec-15 23:00N 49°30' W 000°00'2 4.2
2017-Dec-15 22:31N 49°31' W 000°03'2 3.8
2017-Dec-15 22:00N 49°31' W 000°06'5 9.5
2017-Dec-15 21:30N 49°30' E 000°01'4 8.1
2017-Dec-15 21:00N 49°29' E 000°07'0 0.0
2017-Dec-15 20:30N 49°29' E 000°07'0 0.0
2017-Dec-15 20:00N 49°29' E 000°07'0 0.0
2017-Dec-15 19:30N 49°29' E 000°07'0 0.0
2017-Dec-15 19:00N 49°29' E 000°07'0 0.0
2017-Dec-15 18:30N 49°29' E 000°07'0 0.0
2017-Dec-15 18:00N 49°29' E 000°07'0 0.0
2017-Dec-15 17:30N 49°29' E 000°07'0 0.0
2017-Dec-15 17:00N 49°29' E 000°07'0 0.0
2017-Dec-15 16:30N 49°29' E 000°07'0 0.0
2017-Dec-15 16:00N 49°29' E 000°07'0 0.0
2017-Dec-15 15:30N 49°29' E 000°07'0 0.0
2017-Dec-15 15:00N 49°29' E 000°07'0 0.0
2017-Dec-15 14:30N 49°29' E 000°07'3 6.6
2017-Dec-15 14:01N 49°30' E 000°02'3 6.5
2017-Dec-15 13:30N 49°29' E 000°07'0 0.0
2017-Dec-15 13:00N 49°29' E 000°07'0 0.0
2017-Dec-15 12:30N 49°29' E 000°07'0 0.0
2017-Dec-15 12:00N 49°29' E 000°07'0 0.0
2017-Dec-15 11:30N 49°29' E 000°07'0 0.0
2017-Dec-15 11:00N 49°29' E 000°07'0 0.0
2017-Dec-15 10:30N 49°29' E 000°07'0 0.0
2017-Dec-15 10:00N 49°29' E 000°07'0 0.0
2017-Dec-15 09:30N 49°29' E 000°07'0 0.0
2017-Dec-15 09:00N 49°29' E 000°07'0 0.0
2017-Dec-15 08:30N 49°29' E 000°07'0 0.2
2017-Dec-15 08:00N 49°29' E 000°07'0 0.2
2017-Dec-15 07:30N 49°29' E 000°07'0 0.0
2017-Dec-15 07:00N 49°29' E 000°07'0 0.0
2017-Dec-15 06:30N 49°29' E 000°07'0 0.0
2017-Dec-15 06:00N 49°29' E 000°07'0 0.0
2017-Dec-15 05:30N 49°29' E 000°07'0 0.0
2017-Dec-15 05:00N 49°29' E 000°07'3 6.8
2017-Dec-15 04:31N 49°30' E 000°02'3 6.8
2017-Dec-15 04:00N 49°29' E 000°07'0 0.0
2017-Dec-15 02:30N 49°29' E 000°07'3 2.3
2017-Dec-15 01:00N 49°30' E 000°02'3 7.0
2017-Dec-15 00:31N 49°29' E 000°07'0 0.0
2017-Dec-14 18:31N 49°29' E 000°07'0 0.0
2017-Dec-14 18:00N 49°29' E 000°07'0 0.0
2017-Dec-14 17:30N 49°29' E 000°07'0 0.0
2017-Dec-14 17:00N 49°29' E 000°07'0 0.0
2017-Dec-14 16:30N 49°29' E 000°07'0 0.0
2017-Dec-14 16:00N 49°29' E 000°07'0 0.0
2017-Dec-14 15:00N 49°29' E 000°07'0 0.0
2017-Dec-14 14:30N 49°29' E 000°07'0 0.0
2017-Dec-14 14:00N 49°29' E 000°07'0 0.0
2017-Dec-14 13:30N 49°29' E 000°07'0 0.0
2017-Dec-14 13:00N 49°29' E 000°07'0 0.0
2017-Dec-14 12:30N 49°29' E 000°07'0 0.0
2017-Dec-14 12:00N 49°29' E 000°07'0 0.0
2017-Dec-14 11:30N 49°29' E 000°07'0 0.0
2017-Dec-14 11:00N 49°29' E 000°07'0 0.0
2017-Dec-14 10:30N 49°29' E 000°07'0 0.0
2017-Dec-14 10:00N 49°29' E 000°07'0 0.0
2017-Dec-14 09:30N 49°29' E 000°07'0 0.0
2017-Dec-14 09:00N 49°29' E 000°07'0 0.0
2017-Dec-14 08:30N 49°29' E 000°07'0 0.2
2017-Dec-14 08:00N 49°29' E 000°07'0 0.2
2017-Dec-14 07:30N 49°29' E 000°07'0 0.0
2017-Dec-14 07:00N 49°29' E 000°07'0 0.0
2017-Dec-14 06:30N 49°29' E 000°07'0 0.0
2017-Dec-14 06:00N 49°29' E 000°07'0 0.0
2017-Dec-14 05:30N 49°29' E 000°07'0 0.0
2017-Dec-14 05:00N 49°29' E 000°07'0 0.0
2017-Dec-14 04:30N 49°29' E 000°07'0 0.0
2017-Dec-14 04:00N 49°29' E 000°07'0 0.0
2017-Dec-14 03:30N 49°29' E 000°07'0 0.0
2017-Dec-14 03:00N 49°29' E 000°07'0 0.0
2017-Dec-14 02:30N 49°29' E 000°07'0 0.0
2017-Dec-14 02:00N 49°29' E 000°07'0 0.0
2017-Dec-14 01:30N 49°29' E 000°07'0 0.0
2017-Dec-14 01:00N 49°29' E 000°07'0 0.0
2017-Dec-14 00:30N 49°29' E 000°07'3 5.8
2017-Dec-14 00:01N 49°30' E 000°02'611.5
2017-Dec-13 23:30N 49°31' W 000°06'510.3
2017-Dec-13 23:01N 49°30' E 000°01'4 7.1
2017-Dec-13 22:30N 49°29' E 000°07'0 0.0
2017-Dec-13 22:00N 49°29' E 000°07'0 0.0
2017-Dec-13 21:31N 49°29' E 000°07'714.6
2017-Dec-13 21:00N 49°31' W 000°04'510.2
2017-Dec-13 20:30N 49°30' E 000°03'2 4.4
2017-Dec-13 20:01N 49°29' E 000°07'0 0.0
2017-Dec-13 19:31N 49°29' E 000°07'0 0.0
2017-Dec-13 19:00N 49°29' E 000°07'0 0.0
2017-Dec-13 18:31N 49°29' E 000°07'0 0.0
2017-Dec-13 18:01N 49°29' E 000°07'0 0.0
2017-Dec-13 17:31N 49°29' E 000°07'0 0.0
2017-Dec-13 17:01N 49°29' E 000°07'0 0.0
2017-Dec-13 16:30N 49°29' E 000°07'0 0.0
2017-Dec-13 16:01N 49°29' E 000°07'0 0.0
2017-Dec-13 15:31N 49°29' E 000°07'3 6.8
2017-Dec-13 15:00N 49°30' E 000°02'0 0.9
2017-Dec-13 14:30N 49°30' E 000°02'3 5.9
2017-Dec-13 14:01N 49°29' E 000°07'0 0.0
2017-Dec-13 13:31N 49°29' E 000°07'0 0.0
2017-Dec-13 13:01N 49°29' E 000°07'2 4.7
2017-Dec-13 12:31N 49°30' E 000°03'0 1.0
2017-Dec-13 12:00N 49°29' E 000°04'2 3.7
2017-Dec-13 11:30N 49°29' E 000°07'0 0.0
2017-Dec-13 11:00N 49°29' E 000°07'0 0.0
2017-Dec-13 10:30N 49°29' E 000°07'0 0.0
2017-Dec-13 10:00N 49°29' E 000°07'0 0.0
2017-Dec-13 09:30N 49°29' E 000°07'0 0.0
2017-Dec-13 09:00N 49°29' E 000°07'0 0.0
2017-Dec-13 08:30N 49°29' E 000°07'0 0.0
2017-Dec-13 08:00N 49°29' E 000°07'0 0.0
2017-Dec-13 07:30N 49°29' E 000°07'0 0.0
2017-Dec-13 07:00N 49°29' E 000°07'0 0.0
2017-Dec-13 06:30N 49°29' E 000°07'713.1
2017-Dec-13 06:01N 49°31' W 000°03'713.0
2017-Dec-13 05:30N 49°29' E 000°07'0 0.0
2017-Dec-13 05:00N 49°29' E 000°07'0 0.0
2017-Dec-13 04:30N 49°29' E 000°07'0 0.0
2017-Dec-13 04:01N 49°29' E 000°07'0 0.0
2017-Dec-13 03:31N 49°29' E 000°07'0 0.0
2017-Dec-13 03:01N 49°29' E 000°07'0 0.0
2017-Dec-13 02:30N 49°29' E 000°07'0 0.0
2017-Dec-13 02:01N 49°29' E 000°07'0 0.0
2017-Dec-13 01:30N 49°29' E 000°07'0 0.0
2017-Dec-13 01:01N 49°29' E 000°07'0 0.0
2017-Dec-13 00:31N 49°29' E 000°07'0 0.0
2017-Dec-13 00:01N 49°29' E 000°07'0 0.0
2017-Dec-12 23:31N 49°29' E 000°07'0 0.9
2017-Dec-12 23:00N 49°29' E 000°06'1019.0
2017-Dec-12 22:30N 49°32' W 000°08'1019.3
2017-Dec-12 22:00N 49°29' E 000°06'0 0.6
2017-Dec-12 21:30N 49°29' E 000°07'0 0.0
2017-Dec-12 21:00N 49°29' E 000°07'0 0.0
2017-Dec-12 20:30N 49°29' E 000°07'0 0.0
2017-Dec-12 20:00N 49°29' E 000°07'0 0.0
2017-Dec-12 19:30N 49°29' E 000°07'0 0.0
2017-Dec-12 19:00N 49°29' E 000°07'0 0.0
2017-Dec-12 18:30N 49°29' E 000°07'0 0.0
2017-Dec-12 18:00N 49°29' E 000°07'0 0.0
2017-Dec-12 17:30N 49°29' E 000°07'0 0.0
2017-Dec-12 17:00N 49°29' E 000°07'0 0.0
2017-Dec-12 16:30N 49°29' E 000°07'917.8
2017-Dec-12 16:00N 49°32' W 000°06'917.8
2017-Dec-12 15:31N 49°29' E 000°07'0 0.0
2017-Dec-12 15:01N 49°29' E 000°07'0 0.0
2017-Dec-12 14:31N 49°29' E 000°07'0 0.0
2017-Dec-12 14:01N 49°29' E 000°07'0 0.0
2017-Dec-12 13:31N 49°29' E 000°07'0 0.0
2017-Dec-12 13:00N 49°29' E 000°07'0 0.5
2017-Dec-12 12:30N 49°29' E 000°06'714.4
2017-Dec-12 12:01N 49°31' W 000°04'714.8
2017-Dec-12 11:31N 49°29' E 000°07'0 0.0
2017-Dec-12 11:01N 49°29' E 000°07'0 0.3
2017-Dec-12 10:31N 49°29' E 000°07'1019.3
2017-Dec-12 10:01N 49°32' W 000°08'1019.2
2017-Dec-12 09:30N 49°29' E 000°07'0 0.3
2017-Dec-12 09:00N 49°29' E 000°07'0 0.0
2017-Dec-12 08:31N 49°29' E 000°07'0 0.0
2017-Dec-12 08:00N 49°29' E 000°07'0 0.0
2017-Dec-12 07:30N 49°29' E 000°07'0 0.0
2017-Dec-12 07:01N 49°29' E 000°07'0 0.0
2017-Dec-12 06:31N 49°29' E 000°07'0 0.0
2017-Dec-12 06:01N 49°29' E 000°07'3 5.0
2017-Dec-12 05:31N 49°30' E 000°03'2 3.4
2017-Dec-12 05:00N 49°30' E 000°01'4 8.3
2017-Dec-12 04:30N 49°29' E 000°07'0 0.0
2017-Dec-12 04:00N 49°29' E 000°07'0 0.0
2017-Dec-12 03:30N 49°29' E 000°07'0 0.0
2017-Dec-12 03:00N 49°29' E 000°07'0 0.0
2017-Dec-12 02:31N 49°29' E 000°07'0 0.0
2017-Dec-12 02:00N 49°29' E 000°07'0 0.0
2017-Dec-12 01:31N 49°29' E 000°07'612.7
2017-Dec-12 01:00N 49°30' W 000°03'5 9.7
2017-Dec-12 00:31N 49°29' E 000°04'2 3.1
2017-Dec-12 00:00N 49°29' E 000°07'0 0.0
2017-Dec-11 23:30N 49°29' E 000°07'0 0.0
2017-Dec-11 23:00N 49°29' E 000°07'0 0.0
2017-Dec-11 22:30N 49°29' E 000°07'0 0.0
2017-Dec-11 22:00N 49°29' E 000°07'0 0.0
2017-Dec-11 21:30N 49°29' E 000°07'0 0.0
2017-Dec-11 21:00N 49°29' E 000°07'0 0.0
2017-Dec-11 20:30N 49°29' E 000°07'0 0.0
2017-Dec-11 20:00N 49°29' E 000°07'0 0.0
2017-Dec-11 19:30N 49°29' E 000°07'0 0.0
2017-Dec-11 19:00N 49°29' E 000°07'0 0.0
2017-Dec-11 18:30N 49°29' E 000°07'0 0.0
2017-Dec-11 18:00N 49°29' E 000°07'0 0.0
2017-Dec-11 17:30N 49°29' E 000°07'0 0.0
2017-Dec-11 17:00N 49°29' E 000°07'0 0.0
2017-Dec-11 16:30N 49°29' E 000°07'0 0.0
2017-Dec-11 16:00N 49°29' E 000°07'0 0.0
2017-Dec-11 15:30N 49°29' E 000°07'0 0.0
2017-Dec-11 15:00N 49°29' E 000°07'0 0.0
2017-Dec-11 14:30N 49°29' E 000°07'1 1.8
2017-Dec-11 14:00N 49°29' E 000°05'1 1.8
2017-Dec-11 13:30N 49°29' E 000°07'0 0.0
2017-Dec-11 13:00N 49°29' E 000°07'0 0.0
2017-Dec-11 12:30N 49°29' E 000°07'0 0.0
2017-Dec-11 12:00N 49°29' E 000°07'0 0.0
2017-Dec-11 11:30N 49°29' E 000°07'0 0.0
2017-Dec-11 11:00N 49°29' E 000°07'0 0.0
2017-Dec-11 10:30N 49°29' E 000°07'2 4.3
2017-Dec-11 10:00N 49°29' E 000°04'2 3.4
2017-Dec-11 09:30N 49°29' E 000°06'0 0.9
2017-Dec-11 09:00N 49°29' E 000°07'0 0.0
2017-Dec-11 08:30N 49°29' E 000°07'0 0.0
2017-Dec-11 08:00N 49°29' E 000°07'0 0.0
2017-Dec-11 07:30N 49°29' E 000°07'0 0.0
2017-Dec-11 07:00N 49°29' E 000°07'0 0.0
2017-Dec-11 06:30N 49°29' E 000°07'0 0.0
2017-Dec-11 06:00N 49°29' E 000°07'0 0.0
2017-Dec-11 05:30N 49°29' E 000°07'0 0.8
2017-Dec-11 05:00N 49°29' E 000°06'4 8.9
2017-Dec-11 04:30N 49°30' W 000°00'5 9.7
2017-Dec-11 04:00N 49°29' E 000°07'0 0.0
2017-Dec-11 03:30N 49°29' E 000°07'0 0.0
2017-Dec-11 03:00N 49°29' E 000°07'0 0.0
2017-Dec-11 02:30N 49°29' E 000°07'918.0
2017-Dec-11 02:01N 49°32' W 000°06'714.8
2017-Dec-11 01:31N 49°29' E 000°04'0 0.0
2017-Dec-11 01:00N 49°29' E 000°04'5 9.9
2017-Dec-11 00:30N 49°31' W 000°03'3 6.8
2017-Dec-11 00:01N 49°32' W 000°08'612.9
2017-Dec-10 23:31N 49°30' E 000°02'3 6.9
2017-Dec-10 23:00N 49°29' E 000°07'0 0.0
2017-Dec-10 22:30N 49°29' E 000°07'0 0.0
2017-Dec-10 22:00N 49°29' E 000°07'0 0.0
2017-Dec-10 21:30N 49°29' E 000°07'0 0.0
2017-Dec-10 21:00N 49°29' E 000°07'0 0.0
2017-Dec-10 20:30N 49°29' E 000°07'0 0.0
2017-Dec-10 20:00N 49°29' E 000°07'0 0.0
2017-Dec-10 19:30N 49°29' E 000°07'0 0.0
2017-Dec-10 19:00N 49°29' E 000°07'0 0.0
2017-Dec-10 18:30N 49°29' E 000°07'0 0.0
2017-Dec-10 18:00N 49°29' E 000°07'0 0.0
2017-Dec-10 17:30N 49°29' E 000°07'0 0.0
2017-Dec-10 17:00N 49°29' E 000°07'0 0.0
2017-Dec-10 16:30N 49°29' E 000°07'0 0.0
2017-Dec-10 16:00N 49°29' E 000°07'0 0.0
2017-Dec-10 15:30N 49°29' E 000°07'0 0.0
2017-Dec-10 15:00N 49°29' E 000°07'0 0.0
2017-Dec-10 14:30N 49°29' E 000°07'0 0.0
2017-Dec-10 14:00N 49°29' E 000°07'0 0.0
2017-Dec-10 13:30N 49°29' E 000°07'0 0.0
2017-Dec-10 13:00N 49°29' E 000°07'0 0.0
2017-Dec-10 12:30N 49°29' E 000°07'0 0.0
2017-Dec-10 12:00N 49°29' E 000°07'0 0.0
2017-Dec-10 11:30N 49°29' E 000°07'0 0.0
2017-Dec-10 11:00N 49°29' E 000°07'0 0.0
2017-Dec-10 10:30N 49°29' E 000°07'0 0.0
2017-Dec-10 10:00N 49°29' E 000°07'0 0.0
2017-Dec-10 09:30N 49°29' E 000°07'0 0.0
2017-Dec-10 09:00N 49°29' E 000°07'0 0.0
2017-Dec-10 08:30N 49°29' E 000°07'0 0.0
2017-Dec-10 08:00N 49°29' E 000°07'0 0.0
2017-Dec-10 07:30N 49°29' E 000°07'1 2.1
2017-Dec-10 07:01N 49°29' E 000°05'815.4
2017-Dec-10 06:31N 49°32' W 000°06'715.0
2017-Dec-10 06:01N 49°29' E 000°05'1 2.6
2017-Dec-10 05:30N 49°29' E 000°07'0 0.0
2017-Dec-10 05:01N 49°29' E 000°07'0 0.0
2017-Dec-10 04:30N 49°29' E 000°07'0 0.0
2017-Dec-10 04:01N 49°29' E 000°07'3 6.1
2017-Dec-10 03:31N 49°30' E 000°02'5 9.5
2017-Dec-10 03:00N 49°32' W 000°04'611.6
2017-Dec-10 02:31N 49°30' E 000°04'2 4.1
2017-Dec-10 02:00N 49°29' E 000°07'0 0.0
2017-Dec-10 01:31N 49°29' E 000°07'0 0.0
2017-Dec-10 01:00N 49°29' E 000°07'0 0.0
2017-Dec-10 00:30N 49°29' E 000°07'2 3.1
2017-Dec-10 00:01N 49°29' E 000°04'815.3
2017-Dec-09 23:30N 49°32' W 000°07'917.8
2017-Dec-09 23:00N 49°29' E 000°06'0 0.5
2017-Dec-09 22:30N 49°29' E 000°07'0 0.0
2017-Dec-09 22:00N 49°29' E 000°07'3 5.2
2017-Dec-09 21:31N 49°30' E 000°03'2 3.2
2017-Dec-09 21:00N 49°29' E 000°05'3 5.8
2017-Dec-09 20:30N 49°30' E 000°01'5 9.5
2017-Dec-09 20:01N 49°32' W 000°06'612.8
2017-Dec-09 19:30N 49°30' E 000°04'2 3.8
2017-Dec-09 19:00N 49°29' E 000°06'0 0.6
2017-Dec-09 18:30N 49°29' E 000°07'0 0.0
2017-Dec-09 18:00N 49°29' E 000°07'0 0.0
2017-Dec-09 17:30N 49°29' E 000°07'2 3.6
2017-Dec-09 17:00N 49°29' E 000°04'2 3.6
2017-Dec-09 16:30N 49°29' E 000°07'0 0.0
2017-Dec-09 16:01N 49°29' E 000°07'0 0.0
2017-Dec-09 15:30N 49°29' E 000°07'1 1.7
2017-Dec-09 15:01N 49°29' E 000°05'611.9
2017-Dec-09 14:31N 49°31' W 000°03'0 0.6
2017-Dec-09 14:01N 49°31' W 000°03'5 9.1
2017-Dec-09 13:30N 49°30' E 000°03'3 5.0
2017-Dec-09 13:00N 49°29' E 000°07'0 0.0
2017-Dec-09 12:30N 49°29' E 000°07'0 0.0
2017-Dec-09 12:00N 49°29' E 000°07'0 0.0
2017-Dec-09 11:31N 49°29' E 000°07'0 0.0
2017-Dec-09 11:00N 49°29' E 000°07'0 0.0
2017-Dec-09 10:31N 49°29' E 000°07'0 0.0
2017-Dec-09 10:01N 49°29' E 000°07'0 0.0
2017-Dec-09 09:30N 49°29' E 000°07'0 0.0
2017-Dec-09 09:00N 49°29' E 000°07'0 0.2
2017-Dec-09 08:30N 49°29' E 000°07'5 9.6
2017-Dec-09 08:01N 49°30' W 000°00'1 2.5
2017-Dec-09 07:30N 49°29' E 000°01'4 7.2
2017-Dec-09 07:00N 49°29' E 000°07'0 0.0
2017-Dec-09 06:31N 49°29' E 000°07'0 0.0
2017-Dec-09 06:00N 49°29' E 000°07'0 0.0
2017-Dec-09 05:31N 49°29' E 000°07'0 0.0
2017-Dec-09 05:00N 49°29' E 000°07'0 0.0
2017-Dec-09 04:31N 49°29' E 000°07'0 0.0
2017-Dec-09 04:01N 49°29' E 000°07'0 0.0
2017-Dec-09 03:30N 49°29' E 000°07'0 0.0
2017-Dec-09 03:01N 49°29' E 000°07'0 0.0
2017-Dec-09 02:31N 49°29' E 000°07'0 0.0
2017-Dec-09 02:01N 49°29' E 000°07'611.8
2017-Dec-09 01:31N 49°31' W 000°02'4 7.5
2017-Dec-09 01:01N 49°30' E 000°03'2 4.4
2017-Dec-09 00:30N 49°29' E 000°07'0 0.0
2017-Dec-09 00:01N 49°29' E 000°07'2 4.8
2017-Dec-08 23:31N 49°30' E 000°03'2 4.7
2017-Dec-08 23:00N 49°29' E 000°07'1 2.0
2017-Dec-08 22:30N 49°29' E 000°05'1 2.1
2017-Dec-08 22:00N 49°29' E 000°07'0 0.0
2017-Dec-08 21:30N 49°29' E 000°07'0 0.0
2017-Dec-08 21:00N 49°29' E 000°07'0 0.7
2017-Dec-08 20:30N 49°29' E 000°06'0 0.7
2017-Dec-08 20:00N 49°29' E 000°07'0 0.0
2017-Dec-08 19:30N 49°29' E 000°07'0 0.0
2017-Dec-08 19:00N 49°29' E 000°07'0 0.0
2017-Dec-08 18:30N 49°29' E 000°07'0 0.0
2017-Dec-08 18:00N 49°29' E 000°07'0 0.0
2017-Dec-08 17:30N 49°29' E 000°07'0 0.0
2017-Dec-08 17:00N 49°29' E 000°07'0 0.0
2017-Dec-08 16:30N 49°29' E 000°07'0 0.0
2017-Dec-08 16:01N 49°29' E 000°07'0 0.0
2017-Dec-08 15:31N 49°29' E 000°07'0 0.0
2017-Dec-08 15:01N 49°29' E 000°07'0 0.0
2017-Dec-08 14:30N 49°29' E 000°07'0 0.0
2017-Dec-08 14:00N 49°29' E 000°07'0 0.0
2017-Dec-08 13:31N 49°29' E 000°07'0 0.0
2017-Dec-08 13:00N 49°29' E 000°07'0 0.0
2017-Dec-08 12:30N 49°29' E 000°07'0 0.0
2017-Dec-08 12:00N 49°29' E 000°07'0 0.0
2017-Dec-08 11:30N 49°29' E 000°07'0 0.0
2017-Dec-08 11:00N 49°29' E 000°07'0 0.0
2017-Dec-08 10:31N 49°29' E 000°07'0 0.0
2017-Dec-08 10:00N 49°29' E 000°07'0 0.0
2017-Dec-08 09:31N 49°29' E 000°07'0 0.0
2017-Dec-08 09:01N 49°29' E 000°07'0 0.0
2017-Dec-08 08:30N 49°29' E 000°07'0 0.0
2017-Dec-08 08:00N 49°29' E 000°07'0 0.0
2017-Dec-08 07:30N 49°29' E 000°07'0 0.0
2017-Dec-08 07:00N 49°29' E 000°07'0 0.0
2017-Dec-08 06:30N 49°29' E 000°07'0 0.0
2017-Dec-08 06:00N 49°29' E 000°07'0 0.0
2017-Dec-08 05:31N 49°29' E 000°07'0 0.0
2017-Dec-08 05:00N 49°29' E 000°07'1 1.2
2017-Dec-08 04:30N 49°29' E 000°06'815.1
2017-Dec-08 04:00N 49°32' W 000°05'611.7
2017-Dec-08 03:30N 49°30' E 000°03'2 4.6
2017-Dec-08 03:00N 49°29' E 000°07'0 0.0
2017-Dec-08 02:30N 49°29' E 000°07'0 0.0
2017-Dec-08 02:00N 49°29' E 000°07'0 0.0
2017-Dec-08 01:30N 49°29' E 000°07'510.0
2017-Dec-08 01:00N 49°30' W 000°01'1 2.2
2017-Dec-08 00:30N 49°30' E 000°01'4 7.9
2017-Dec-08 00:00N 49°29' E 000°07'0 0.0
2017-Dec-07 23:30N 49°29' E 000°07'0 0.0
2017-Dec-07 23:00N 49°29' E 000°07'0 0.0
2017-Dec-07 22:30N 49°29' E 000°07'0 0.0
2017-Dec-07 22:00N 49°29' E 000°07'0 0.0
2017-Dec-07 21:30N 49°29' E 000°07'0 0.0
2017-Dec-07 21:00N 49°29' E 000°07'0 0.0
2017-Dec-07 20:30N 49°29' E 000°07'0 0.0
2017-Dec-07 20:00N 49°29' E 000°07'4 8.4
2017-Dec-07 19:31N 49°30' E 000°01'4 7.4
2017-Dec-07 19:01N 49°29' E 000°06'1 1.1
2017-Dec-07 18:31N 49°29' E 000°07'0 0.0
2017-Dec-07 18:01N 49°29' E 000°07'0 0.0
2017-Dec-07 17:31N 49°29' E 000°07'0 0.0
2017-Dec-07 17:01N 49°29' E 000°07'0 0.0
2017-Dec-07 16:31N 49°29' E 000°07'0 0.0
2017-Dec-07 16:01N 49°29' E 000°07'0 0.0
2017-Dec-07 15:31N 49°29' E 000°07'0 0.0
2017-Dec-07 15:01N 49°29' E 000°07'0 0.0
2017-Dec-07 14:30N 49°29' E 000°07'0 0.0
2017-Dec-07 14:01N 49°29' E 000°07'0 0.0
2017-Dec-07 13:31N 49°29' E 000°07'0 0.0
2017-Dec-07 13:01N 49°29' E 000°07'0 0.7
2017-Dec-07 12:31N 49°29' E 000°06'0 0.7
2017-Dec-07 12:00N 49°29' E 000°06'1 1.3
2017-Dec-07 11:30N 49°29' E 000°07'0 0.0
2017-Dec-07 11:00N 49°29' E 000°07'0 0.0
2017-Dec-07 10:30N 49°29' E 000°07'0 0.0
2017-Dec-07 10:00N 49°29' E 000°07'0 0.3
2017-Dec-07 09:30N 49°29' E 000°07'0 0.3
2017-Dec-07 09:00N 49°29' E 000°07'0 0.0
2017-Dec-07 08:30N 49°29' E 000°07'  

Dump ship's entire track history